Time;durP1;ratioP1;P1;durP2;ratioP2;P2;SDS_P1;SDS_P2;PMS_P1;PMS_P2;Temp;Humidity;BMP_temperature;BMP_pressure;BME280_temperature;BME280_humidity;BME280_pressure;Samples;Min_cycle;Max_cycle;Signal;HPM_P1;HPM_P2
2023/12/07 00:00:53;;;;;;;45.78;20.38;;;;;;;0.39;100.00;97659.34;5099841;28;20386;-81
2023/12/07 00:03:20;;;;;;;40.88;17.50;;;;;;;0.42;100.00;97652.97;5100671;28;20481;-82
2023/12/07 00:05:46;;;;;;;34.93;15.50;;;;;;;0.42;100.00;97655.59;5100024;28;20398;-81
2023/12/07 00:08:12;;;;;;;39.85;17.33;;;;;;;0.41;100.00;97656.56;5099774;28;20393;-82
2023/12/07 00:10:38;;;;;;;46.65;20.00;;;;;;;0.38;100.00;97651.72;5105646;28;20488;-81
2023/12/07 00:13:05;;;;;;;41.42;20.60;;;;;;;0.37;100.00;97657.94;5101042;28;20414;-81
2023/12/07 00:15:32;;;;;;;45.58;19.23;;;;;;;0.41;100.00;97653.97;5104626;28;20891;-81
2023/12/07 00:18:00;;;;;;;46.10;19.98;;;;;;;0.42;100.00;97655.59;5100459;28;20390;-81
2023/12/07 00:20:26;;;;;;;35.22;17.67;;;;;;;0.46;100.00;97669.03;5099484;28;20397;-81
2023/12/07 00:22:52;;;;;;;37.20;15.85;;;;;;;0.48;100.00;97665.28;5099585;28;20481;-81
2023/12/07 00:25:18;;;;;;;36.85;17.65;;;;;;;0.44;100.00;97658.81;5098446;28;20430;-81
2023/12/07 00:27:45;;;;;;;35.53;16.92;;;;;;;0.46;100.00;97672.44;5099053;28;20393;-81
2023/12/07 00:30:13;;;;;;;27.05;14.10;;;;;;;0.46;100.00;97669.84;5080924;28;20480;-81
2023/12/07 00:32:43;;;;;;;31.75;15.23;;;;;;;0.45;100.00;97670.88;5099874;28;20518;-81
2023/12/07 00:35:09;;;;;;;34.42;17.30;;;;;;;0.44;100.00;97669.25;5103032;28;20393;-82
2023/12/07 00:37:35;;;;;;;33.63;15.15;;;;;;;0.47;100.00;97681.06;5103467;28;20425;-81
2023/12/07 00:40:02;;;;;;;32.10;14.93;;;;;;;0.47;100.00;97681.88;5105199;28;20398;-81
2023/12/07 00:42:28;;;;;;;26.70;13.70;;;;;;;0.48;100.00;97680.91;5107322;28;20475;-80
2023/12/07 00:44:54;;;;;;;32.78;15.95;;;;;;;0.49;100.00;97684.31;5101184;28;20398;-80
2023/12/07 00:47:22;;;;;;;29.33;14.88;;;;;;;0.49;100.00;97684.31;5099587;28;20458;-81
2023/12/07 00:49:48;;;;;;;39.67;18.70;;;;;;;0.47;100.00;97678.47;5100049;28;20529;-80
2023/12/07 00:52:14;;;;;;;37.22;18.58;;;;;;;0.45;100.00;97681.28;5099312;28;20461;-81
2023/12/07 00:54:41;;;;;;;37.55;18.05;;;;;;;0.49;100.00;97679.09;5099492;28;20447;-81
2023/12/07 00:57:07;;;;;;;37.23;16.87;;;;;;;0.48;100.00;97667.88;5101988;28;20506;-80
2023/12/07 00:59:33;;;;;;;32.20;16.05;;;;;;;0.51;100.00;97677.94;5106808;28;20393;-81
2023/12/07 01:02:00;;;;;;;33.75;15.30;;;;;;;0.54;100.00;97671.56;5107758;28;20397;-78
2023/12/07 01:04:29;;;;;;;32.85;15.98;;;;;;;0.57;100.00;97684.22;5112555;28;20865;-78
2023/12/07 01:06:55;;;;;;;27.25;14.20;;;;;;;0.56;100.00;97685.22;5100948;28;20495;-81
2023/12/07 01:09:21;;;;;;;41.13;17.30;;;;;;;0.51;100.00;97683.16;5099014;28;20878;-80
2023/12/07 01:11:47;;;;;;;33.40;15.90;;;;;;;0.51;100.00;97680.56;5098286;28;20406;-81
2023/12/07 01:14:14;;;;;;;33.87;15.23;;;;;;;0.51;100.00;97690.16;5098305;28;20458;-80
2023/12/07 01:16:40;;;;;;;26.40;13.38;;;;;;;0.51;100.00;97690.97;5098337;28;20394;-81
2023/12/07 01:19:07;;;;;;;33.60;15.30;;;;;;;0.50;100.00;97694.56;5097981;28;20738;-81
2023/12/07 01:21:34;;;;;;;28.17;14.32;;;;;;;0.53;100.00;97698.59;5098096;28;20405;-81
2023/12/07 01:24:00;;;;;;;29.08;13.95;;;;;;;0.52;100.00;97689.19;5097994;28;20392;-81
2023/12/07 01:26:26;;;;;;;26.92;12.75;;;;;;;0.52;100.00;97692.59;5098377;28;20422;-81
2023/12/07 01:28:52;;;;;;;32.42;15.57;;;;;;;0.52;100.00;97699.59;5098021;28;20436;-81
2023/12/07 01:31:19;;;;;;;28.98;13.70;;;;;;;0.55;100.00;97699.22;5098834;28;20781;-80
2023/12/07 01:33:45;;;;;;;23.60;11.23;;;;;;;0.54;100.00;97701.00;5080604;28;20775;-81
2023/12/07 01:36:11;;;;;;;34.90;14.75;;;;;;;0.51;100.00;97701.38;5098105;28;20843;-78
2023/12/07 01:38:39;;;;;;;28.10;13.40;;;;;;;0.51;100.00;97704.00;5097844;28;20390;-81
2023/12/07 01:41:05;;;;;;;30.03;14.13;;;;;;;0.48;100.00;97695.72;5097976;28;20421;-81
2023/12/07 01:43:32;;;;;;;34.72;16.67;;;;;;;0.38;100.00;97699.38;5097673;28;20882;-78
2023/12/07 01:45:59;;;;;;;25.42;12.82;;;;;;;0.38;100.00;97707.19;5098308;28;20439;-79
2023/12/07 01:48:27;;;;;;;28.87;13.40;;;;;;;0.35;100.00;97706.75;5098230;28;20445;-80
2023/12/07 01:50:54;;;;;;;27.60;14.10;;;;;;;0.28;100.00;97708.47;5098441;28;20394;-80
2023/12/07 01:53:23;;;;;;;37.80;17.27;;;;;;;0.21;100.00;97718.78;5098079;28;20932;-80
2023/12/07 01:55:52;;;;;;;37.13;17.15;;;;;;;0.21;100.00;97707.56;5098704;28;20497;-80
2023/12/07 01:58:20;;;;;;;36.47;15.90;;;;;;;0.21;100.00;97705.78;5097864;28;20393;-80
2023/12/07 02:00:48;;;;;;;29.30;13.95;;;;;;;0.18;100.00;97716.53;5098061;28;20392;-80
2023/12/07 02:03:15;;;;;;;30.10;14.38;;;;;;;0.15;100.00;97714.25;5097967;28;20394;-80
2023/12/07 02:05:45;;;;;;;30.13;14.23;;;;;;;0.14;100.00;97720.47;5097651;28;20382;-81
2023/12/07 02:08:12;;;;;;;30.15;14.00;;;;;;;0.14;100.00;97719.66;5098060;28;20433;-81
2023/12/07 02:10:38;;;;;;;36.28;16.40;;;;;;;0.11;100.00;97720.00;5097682;28;20401;-81
2023/12/07 02:13:06;;;;;;;32.55;14.15;;;;;;;0.11;100.00;97710.41;5079878;28;20422;-80
2023/12/07 02:15:33;;;;;;;26.48;12.07;;;;;;;0.06;100.00;97709.34;5097371;28;20429;-80
2023/12/07 02:18:06;;;;;;;28.20;13.70;;;;;;;0.01;100.00;97709.84;5098736;28;20498;-80
2023/12/07 02:20:37;;;;;;;36.87;15.53;;;;;;;-0.04;100.00;97706.97;5098077;28;20401;-80
2023/12/07 02:23:07;;;;;;;27.48;13.00;;;;;;;-0.10;100.00;97708.50;5099072;28;20402;-80
2023/12/07 02:25:40;;;;;;;25.27;13.10;;;;;;;-0.17;100.00;97704.97;5098773;28;20412;-80
2023/12/07 02:28:08;;;;;;;32.90;13.88;;;;;;;-0.25;100.00;97706.81;5080358;28;20457;-80
2023/12/07 02:30:34;;;;;;;27.98;12.55;;;;;;;-0.32;100.00;97705.91;5097942;28;20394;-80
2023/12/07 02:33:00;;;;;;;30.55;14.25;;;;;;;-0.41;100.00;97697.34;5097611;28;20500;-80
2023/12/07 02:35:28;;;;;;;26.02;12.38;;;;;;;-0.46;100.00;97710.09;5098465;28;20389;-79
2023/12/07 02:37:55;;;;;;;26.33;12.57;;;;;;;-0.53;100.00;97707.38;5101599;28;20432;-79
2023/12/07 02:40:24;;;;;;;24.07;12.50;;;;;;;-0.59;100.00;97708.03;5096250;28;20415;-79
2023/12/07 02:42:52;;;;;;;27.83;12.82;;;;;;;-0.63;100.00;97709.38;5095983;28;20882;-80
2023/12/07 02:45:20;;;;;;;27.45;12.88;;;;;;;-0.65;100.00;97707.91;5096867;28;20398;-79
2023/12/07 02:47:46;;;;;;;25.67;11.85;;;;;;;-0.64;100.00;97712.94;5096503;28;20402;-79
2023/12/07 02:50:13;;;;;;;25.77;11.63;;;;;;;-0.61;100.00;97701.41;5097073;28;20898;-80
2023/12/07 02:52:40;;;;;;;25.05;11.88;;;;;;;-0.59;100.00;97697.63;5097020;28;20412;-80
2023/12/07 02:55:07;;;;;;;31.38;12.93;;;;;;;-0.56;100.00;97701.69;5097426;28;20889;-80
2023/12/07 02:57:36;;;;;;;24.70;11.75;;;;;;;-0.53;100.00;97698.75;5099036;28;20483;-79
2023/12/07 03:00:06;;;;;;;21.55;10.45;;;;;;;-0.48;100.00;97705.03;5096956;28;20390;-79
2023/12/07 03:02:33;;;;;;;18.02;9.45;;;;;;;-0.45;100.00;97707.28;5078950;28;20398;-80
2023/12/07 03:05:00;;;;;;;18.50;9.68;;;;;;;-0.43;100.00;97709.72;5096877;28;20439;-80
2023/12/07 03:07:26;;;;;;;17.70;8.55;;;;;;;-0.43;100.00;97713.13;5097068;28;20428;-80
2023/12/07 03:09:52;;;;;;;16.63;8.13;;;;;;;-0.43;100.00;97717.50;5096902;28;20409;-80
2023/12/07 03:12:18;;;;;;;18.15;8.52;;;;;;;-0.43;100.00;97720.94;5096987;28;20441;-80
2023/12/07 03:14:44;;;;;;;16.15;8.15;;;;;;;-0.45;100.00;97714.28;5096092;28;20398;-79
2023/12/07 03:17:10;;;;;;;16.55;8.32;;;;;;;-0.48;100.00;97710.25;5096982;28;20405;-80
2023/12/07 03:19:40;;;;;;;21.02;9.32;;;;;;;-0.52;100.00;97715.94;5097432;28;20428;-80
2023/12/07 03:22:07;;;;;;;19.88;9.35;;;;;;;-0.56;100.00;97719.88;5100900;28;20442;-80
2023/12/07 03:24:33;;;;;;;19.95;9.13;;;;;;;-0.61;100.00;97717.81;5100655;28;20394;-80
2023/12/07 03:26:59;;;;;;;25.08;11.30;;;;;;;-0.66;100.00;97714.91;5101821;28;20405;-80
2023/12/07 03:29:26;;;;;;;43.57;16.10;;;;;;;-0.69;100.00;97719.66;5101577;28;20866;-79
2023/12/07 03:31:52;;;;;;;49.45;17.95;;;;;;;-0.72;100.00;97717.38;5100008;28;20396;-80
2023/12/07 03:34:18;;;;;;;41.88;16.30;;;;;;;-0.74;100.00;97725.34;5100275;28;20434;-79
2023/12/07 03:36:47;;;;;;;39.50;15.63;;;;;;;-0.76;100.00;97713.53;5082199;28;20516;-80
2023/12/07 03:39:14;;;;;;;38.53;15.45;;;;;;;-0.81;100.00;97716.63;5101446;28;20458;-80
2023/12/07 03:41:41;;;;;;;49.45;16.90;;;;;;;-0.83;100.00;97726.41;5100013;28;20835;-80
2023/12/07 03:44:07;;;;;;;46.08;17.65;;;;;;;-0.89;100.00;97722.66;5100059;28;20450;-80
2023/12/07 03:46:33;;;;;;;45.58;18.35;;;;;;;-0.94;100.00;97727.56;5100141;28;20390;-80
2023/12/07 03:48:59;;;;;;;48.42;17.63;;;;;;;-0.99;100.00;97737.69;5100535;28;20494;-81
2023/12/07 03:51:26;;;;;;;59.50;20.55;;;;;;;-1.05;100.00;97725.34;5111403;28;20901;-79
2023/12/07 03:53:54;;;;;;;48.25;18.48;;;;;;;-1.11;100.00;97728.63;5112330;28;20422;-79
2023/12/07 03:56:24;;;;;;;41.08;16.75;;;;;;;-1.20;100.00;97730.44;5102266;28;20452;-79
2023/12/07 03:58:50;;;;;;;33.33;14.02;;;;;;;-1.25;100.00;97729.31;5098910;28;20432;-79
2023/12/07 04:01:17;;;;;;;30.10;12.98;;;;;;;-1.34;100.00;97735.53;5099636;28;20408;-79
2023/12/07 04:03:43;;;;;;;29.75;12.23;;;;;;;-1.41;100.00;97737.97;5099760;28;20451;-79
2023/12/07 04:06:09;;;;;;;27.88;11.90;;;;;;;-1.48;100.00;97733.63;5100495;28;20390;-80
2023/12/07 04:08:35;;;;;;;38.28;15.82;;;;;;;-1.53;100.00;97739.31;5109578;28;20390;-79
2023/12/07 04:11:03;;;;;;;35.42;13.77;;;;;;;-1.59;100.00;97740.00;5114008;28;20870;-79
2023/12/07 04:13:29;;;;;;;30.90;13.80;;;;;;;-1.64;100.00;97747.44;5105198;28;20414;-79
2023/12/07 04:15:55;;;;;;;36.85;14.27;;;;;;;-1.69;100.00;97745.34;5101675;28;20746;-79
2023/12/07 04:18:21;;;;;;;44.20;17.70;;;;;;;-1.73;100.00;97741.44;5100237;28;20398;-79
2023/12/07 04:20:47;;;;;;;44.22;16.27;;;;;;;-1.76;100.00;97754.78;5098934;28;20858;-79
2023/12/07 04:23:13;;;;;;;47.73;17.83;;;;;;;-1.79;100.00;97744.72;5099990;28;20889;-79
2023/12/07 04:25:40;;;;;;;43.72;16.58;;;;;;;-1.81;100.00;97745.88;5100029;28;20390;-79
2023/12/07 04:28:07;;;;;;;40.33;16.02;;;;;;;-1.82;100.00;97757.22;5099697;28;20394;-79
2023/12/07 04:30:33;;;;;;;33.45;14.93;;;;;;;-1.84;100.00;97751.38;5099536;28;20421;-79
2023/12/07 04:32:59;;;;;;;31.95;13.90;;;;;;;-1.86;100.00;97751.53;5099366;28;20477;-79
2023/12/07 04:35:26;;;;;;;30.17;13.23;;;;;;;-1.87;100.00;97757.69;5099240;28;20397;-79
2023/12/07 04:37:53;;;;;;;39.38;15.25;;;;;;;-1.88;100.00;97760.47;5099716;28;20452;-79
2023/12/07 04:40:19;;;;;;;38.80;14.55;;;;;;;-1.90;100.00;97765.00;5099212;28;20390;-79
2023/12/07 04:42:45;;;;;;;34.97;13.82;;;;;;;-1.93;100.00;97754.94;5098922;28;20397;-79
2023/12/07 04:45:12;;;;;;;34.55;14.23;;;;;;;-1.95;100.00;97760.28;5099172;28;20836;-80
2023/12/07 04:47:39;;;;;;;45.80;16.70;;;;;;;-1.97;100.00;97762.25;5099302;28;20803;-80
2023/12/07 04:50:05;;;;;;;42.23;15.23;;;;;;;-1.98;100.00;97763.22;5099168;28;20889;-80
2023/12/07 04:52:31;;;;;;;42.72;16.45;;;;;;;-1.96;100.00;97756.91;5099783;28;20910;-80
2023/12/07 04:54:58;;;;;;;36.10;15.70;;;;;;;-1.94;100.00;97759.31;5099562;28;20403;-81
2023/12/07 04:57:24;;;;;;;38.30;16.17;;;;;;;-1.95;100.00;97755.91;5099622;28;20902;-80
2023/12/07 04:59:50;;;;;;;44.25;17.08;;;;;;;-1.96;100.00;97753.50;5100765;28;20403;-81
2023/12/07 05:02:18;;;;;;;38.95;15.00;;;;;;;-2.00;100.00;97753.00;5105652;28;20762;-80
2023/12/07 05:04:45;;;;;;;33.30;14.13;;;;;;;-2.03;100.00;97755.91;5099956;28;20389;-80
2023/12/07 05:07:11;;;;;;;36.33;16.05;;;;;;;-2.10;100.00;97744.56;5099263;28;20398;-79
2023/12/07 05:09:38;;;;;;;38.10;15.63;;;;;;;-2.12;100.00;97754.31;5099151;28;20485;-79
2023/12/07 05:12:04;;;;;;;35.72;14.30;;;;;;;-2.16;100.00;97752.19;5099674;28;20493;-80
2023/12/07 05:14:31;;;;;;;30.17;12.75;;;;;;;-2.18;100.00;97764.53;5099191;28;20415;-80
2023/12/07 05:16:57;;;;;;;29.55;12.13;;;;;;;-2.20;100.00;97763.88;5100098;28;20506;-79
2023/12/07 05:19:25;;;;;;;24.20;10.65;;;;;;;-2.23;100.00;97761.59;5098982;28;20402;-81
2023/12/07 05:21:51;;;;;;;22.55;11.10;;;;;;;-2.27;100.00;97768.91;5099443;28;20386;-82
2023/12/07 05:24:18;;;;;;;26.23;11.10;;;;;;;-2.29;100.00;97764.84;5100059;28;20439;-81
2023/12/07 05:26:47;;;;;;;26.98;12.60;;;;;;;-2.33;100.00;97765.13;5099264;28;20911;-80
2023/12/07 05:29:14;;;;;;;32.42;12.88;;;;;;;-2.35;100.00;97769.69;5100296;28;20394;-81
2023/12/07 05:31:40;;;;;;;26.77;11.85;;;;;;;-2.36;100.00;97767.25;5101427;28;20394;-80
2023/12/07 05:34:06;;;;;;;23.50;10.88;;;;;;;-2.37;100.00;97773.41;5098114;28;20805;-80
2023/12/07 05:36:34;;;;;;;21.42;10.65;;;;;;;-2.39;100.00;97775.34;5097871;28;20426;-81
2023/12/07 05:39:00;;;;;;;23.70;10.43;;;;;;;-2.40;100.00;97776.31;5097958;28;20873;-80
2023/12/07 05:41:27;;;;;;;21.17;10.15;;;;;;;-2.33;100.00;97767.72;5102142;28;20385;-81
2023/12/07 05:43:53;;;;;;;18.20;9.87;;;;;;;-2.30;100.00;97768.38;5097265;28;20467;-82
2023/12/07 05:46:19;;;;;;;19.23;9.30;;;;;;;-2.30;100.00;97769.19;5098344;28;20390;-81
2023/12/07 05:48:46;;;;;;;20.33;9.65;;;;;;;-2.33;100.00;97766.91;5098106;28;20843;-81
2023/12/07 05:51:13;;;;;;;17.08;9.52;;;;;;;-2.27;100.00;97768.91;5097511;28;20431;-81
2023/12/07 05:53:40;;;;;;;17.63;9.40;;;;;;;-2.26;100.00;97769.72;5097238;28;20429;-80
2023/12/07 05:56:07;;;;;;;17.98;9.60;;;;;;;-2.28;100.00;97764.69;5098040;28;20738;-79
2023/12/07 05:58:33;;;;;;;19.55;9.80;;;;;;;-2.31;100.00;97765.00;5097740;28;20402;-80
2023/12/07 06:01:01;;;;;;;16.40;9.27;;;;;;;-2.33;100.00;97761.72;5097569;28;20389;-79
2023/12/07 06:03:28;;;;;;;15.38;9.30;;;;;;;-2.36;100.00;97755.09;5097424;28;20448;-79
2023/12/07 06:05:55;;;;;;;15.17;9.00;;;;;;;-2.37;100.00;97760.44;5095032;28;20414;-79
2023/12/07 06:08:21;;;;;;;17.23;9.33;;;;;;;-2.40;100.00;97761.56;5098196;28;20395;-80
2023/12/07 06:10:49;;;;;;;16.30;8.65;;;;;;;-2.44;100.00;97768.06;5092305;28;20405;-80
2023/12/07 06:13:15;;;;;;;14.80;8.73;;;;;;;-2.46;100.00;97762.22;5097571;28;20410;-82
2023/12/07 06:15:41;;;;;;;15.13;8.55;;;;;;;-2.47;100.00;97762.38;5102066;28;20424;-80
2023/12/07 06:18:08;;;;;;;13.88;8.23;;;;;;;-2.50;100.00;97757.53;5100781;28;20439;-79
2023/12/07 06:20:35;;;;;;;14.68;8.32;;;;;;;-2.52;100.00;97759.47;5098539;28;20394;-78
2023/12/07 06:23:02;;;;;;;13.63;7.90;;;;;;;-2.54;100.00;97756.19;5101734;28;20442;-79
2023/12/07 06:25:28;;;;;;;19.42;9.02;;;;;;;-2.55;100.00;97757.16;5100638;28;20839;-81
2023/12/07 06:27:56;;;;;;;15.80;9.05;;;;;;;-2.58;100.00;97760.09;5102629;28;20486;-82
2023/12/07 06:30:22;;;;;;;18.55;10.00;;;;;;;-2.59;100.00;97758.47;5103643;28;20394;-83
2023/12/07 06:32:48;;;;;;;16.17;9.57;;;;;;;-2.59;100.00;97764.47;5107278;28;20417;-81
2023/12/07 06:35:16;;;;;;;16.30;9.88;;;;;;;-2.60;100.00;97762.03;5105333;28;20738;-83
2023/12/07 06:37:42;;;;;;;18.17;10.10;;;;;;;-2.61;100.00;97760.41;5107579;28;20414;-83
2023/12/07 06:40:10;;;;;;;19.02;9.98;;;;;;;-2.64;100.00;97761.56;5106757;28;20464;-84
2023/12/07 06:42:36;;;;;;;16.63;9.60;;;;;;;-2.65;100.00;97757.34;5104608;28;20405;-84
2023/12/07 06:45:05;;;;;;;16.67;8.98;;;;;;;-2.66;100.00;97757.50;5103492;28;20422;-83
2023/12/07 06:47:31;;;;;;;15.88;9.23;;;;;;;-2.67;100.00;97761.84;5103705;28;20396;-81
2023/12/07 06:49:58;;;;;;;15.23;9.45;;;;;;;-2.68;100.00;97764.59;5106149;28;20397;-80
2023/12/07 06:52:24;;;;;;;16.88;9.23;;;;;;;-2.71;100.00;97765.75;5107712;28;20423;-83
2023/12/07 06:54:50;;;;;;;16.52;9.57;;;;;;;-2.71;100.00;97764.94;5108129;28;20926;-82
2023/12/07 06:57:17;;;;;;;15.20;8.70;;;;;;;-2.71;100.00;97773.53;5111389;28;20402;-83
2023/12/07 06:59:43;;;;;;;14.82;8.77;;;;;;;-2.72;100.00;97769.31;5109463;28;20477;-83
2023/12/07 07:02:10;;;;;;;20.08;9.18;;;;;;;-2.74;100.00;97769.44;5109878;28;20398;-81
2023/12/07 07:04:36;;;;;;;15.02;9.93;;;;;;;-2.75;100.00;97765.25;5110923;28;20397;-81
2023/12/07 07:07:02;;;;;;;18.83;10.20;;;;;;;-2.75;100.00;97765.25;5110152;28;20386;-82
2023/12/07 07:09:29;;;;;;;26.63;11.60;;;;;;;-2.75;100.00;97761.84;5110573;28;20405;-80
2023/12/07 07:11:55;;;;;;;17.65;9.98;;;;;;;-2.75;100.00;97765.25;5105814;28;20854;-80
2023/12/07 07:14:21;;;;;;;22.30;10.57;;;;;;;-2.76;100.00;97768.78;5108561;28;20425;-81
2023/12/07 07:16:47;;;;;;;16.42;9.95;;;;;;;-2.76;100.00;97778.34;5112521;28;20408;-81
2023/12/07 07:19:16;;;;;;;19.48;10.60;;;;;;;-2.76;100.00;97766.19;5104735;28;20428;-80
2023/12/07 07:21:42;;;;;;;17.50;10.07;;;;;;;-2.75;100.00;97770.41;5110445;28;20422;-79
2023/12/07 07:24:09;;;;;;;18.52;10.50;;;;;;;-2.74;100.00;97768.63;5113768;28;20432;-79
2023/12/07 07:26:35;;;;;;;18.42;10.52;;;;;;;-2.74;100.00;97769.44;5106019;28;20888;-79
2023/12/07 07:29:02;;;;;;;22.05;10.95;;;;;;;-2.74;100.00;97769.44;5108463;28;20421;-80
2023/12/07 07:31:29;;;;;;;19.13;10.70;;;;;;;-2.72;100.00;97765.91;5090372;28;20400;-81
2023/12/07 07:33:56;;;;;;;19.52;10.45;;;;;;;-2.71;100.00;97770.13;5085673;28;20419;-81
2023/12/07 07:36:23;;;;;;;18.83;10.10;;;;;;;-2.70;100.00;97766.53;5083115;28;20427;-79
2023/12/07 07:38:49;;;;;;;19.08;9.77;;;;;;;-2.70;100.00;97761.34;5082881;28;20400;-80
2023/12/07 07:41:15;;;;;;;19.20;10.55;;;;;;;-2.69;100.00;97765.56;5083391;28;20396;-81
2023/12/07 07:43:42;;;;;;;25.40;11.88;;;;;;;-2.67;100.00;97774.81;5080679;28;20391;-80
2023/12/07 07:46:09;;;;;;;17.98;10.50;;;;;;;-2.66;100.00;97784.22;5080607;28;20392;-80
2023/12/07 07:48:35;;;;;;;20.10;10.77;;;;;;;-2.64;100.00;97781.47;5086172;28;20463;-81
2023/12/07 07:51:01;;;;;;;19.13;10.30;;;;;;;-2.63;100.00;97781.28;5089594;28;20399;-81
2023/12/07 07:53:28;;;;;;;24.23;11.95;;;;;;;-2.62;100.00;97777.72;5081299;28;20422;-81
2023/12/07 07:55:54;;;;;;;21.98;11.35;;;;;;;-2.60;100.00;97780.16;5082012;28;20391;-81
2023/12/07 07:58:21;;;;;;;20.17;10.63;;;;;;;-2.59;100.00;97782.59;5079858;28;20406;-80
2023/12/07 08:00:47;;;;;;;27.60;12.10;;;;;;;-2.57;100.00;97785.84;5079411;28;20441;-81
2023/12/07 08:03:13;;;;;;;25.15;12.07;;;;;;;-2.56;100.00;97779.72;5079439;28;20400;-81
2023/12/07 08:05:39;;;;;;;28.13;13.35;;;;;;;-2.54;100.00;97787.31;5085144;28;20435;-83
2023/12/07 08:08:06;;;;;;;30.43;14.07;;;;;;;-2.54;100.00;97785.53;5100070;28;20386;-81
2023/12/07 08:10:34;;;;;;;26.50;13.10;;;;;;;-2.52;100.00;97785.38;5100412;28;20435;-81
2023/12/07 08:13:00;;;;;;;32.60;13.77;;;;;;;-2.51;100.00;97790.41;5100186;28;20398;-82
2023/12/07 08:15:26;;;;;;;30.40;14.15;;;;;;;-2.48;100.00;97782.28;5099891;28;20402;-81
2023/12/07 08:17:52;;;;;;;32.63;16.03;;;;;;;-2.46;100.00;97780.34;5101746;28;20462;-81
2023/12/07 08:20:18;;;;;;;36.00;15.70;;;;;;;-2.42;100.00;97778.28;5101572;28;20394;-81
2023/12/07 08:22:45;;;;;;;48.20;23.08;;;;;;;-2.43;100.00;97781.84;5099615;28;20738;-79
2023/12/07 08:25:11;;;;;;;68.32;30.98;;;;;;;-2.34;100.00;97788.66;5103954;28;20745;-81
2023/12/07 08:27:39;;;;;;;63.10;26.60;;;;;;;-2.24;100.00;97785.88;5100186;28;20481;-78
2023/12/07 08:30:09;;;;;;;54.53;23.23;;;;;;;-2.17;100.00;97790.28;5099883;28;20394;-79
2023/12/07 08:32:36;;;;;;;46.88;20.85;;;;;;;-2.11;100.00;97794.84;5102047;28;20457;-80
2023/12/07 08:35:02;;;;;;;74.35;30.63;;;;;;;-2.04;100.00;97795.00;5101014;28;20420;-81
2023/12/07 08:37:28;;;;;;;76.93;29.85;;;;;;;-1.94;100.00;97787.84;5099389;28;20409;-80
2023/12/07 08:39:55;;;;;;;61.65;25.48;;;;;;;-1.85;100.00;97784.28;5099986;28;20382;-81
2023/12/07 08:42:21;;;;;;;52.70;22.53;;;;;;;-1.79;100.00;97783.63;5099881;28;20386;-80
2023/12/07 08:44:49;;;;;;;56.95;23.10;;;;;;;-1.73;100.00;97789.97;5100351;28;20394;-81
2023/12/07 08:47:15;;;;;;;48.58;20.48;;;;;;;-1.71;100.00;97796.59;5100189;28;20754;-79
2023/12/07 08:49:41;;;;;;;48.90;20.67;;;;;;;-1.68;100.00;97795.47;5101194;28;20949;-80
2023/12/07 08:52:07;;;;;;;47.55;19.15;;;;;;;-1.67;100.00;97789.31;5098611;28;20427;-80
2023/12/07 08:54:33;;;;;;;36.50;16.30;;;;;;;-1.66;100.00;97780.56;5099657;28;20414;-80
2023/12/07 08:56:59;;;;;;;44.10;17.90;;;;;;;-1.66;100.00;97776.19;5098978;28;20390;-80
2023/12/07 08:59:26;;;;;;;38.63;16.55;;;;;;;-1.65;100.00;97764.00;5099444;28;20417;-81
2023/12/07 09:01:53;;;;;;;49.92;18.20;;;;;;;-1.63;100.00;97770.66;5100855;28;20394;-81
2023/12/07 09:04:19;;;;;;;46.08;18.02;;;;;;;-1.61;100.00;97755.72;5099246;28;20447;-79
2023/12/07 09:06:45;;;;;;;52.67;19.05;;;;;;;-1.58;100.00;97765.75;5099737;28;20412;-79
2023/12/07 09:09:11;;;;;;;54.13;21.95;;;;;;;-1.54;100.00;97771.44;5099123;28;20408;-79
2023/12/07 09:11:38;;;;;;;88.07;33.53;;;;;;;-1.49;100.00;97773.53;5098218;28;20422;-80
2023/12/07 09:14:04;;;;;;;97.95;39.42;;;;;;;-1.43;100.00;97759.91;5098161;28;20453;-81
2023/12/07 09:16:30;;;;;;;125.50;51.55;;;;;;;-1.38;100.00;97755.84;5099068;28;20394;-81
2023/12/07 09:18:57;;;;;;;105.65;42.25;;;;;;;-1.30;100.00;97757.59;5097909;28;20394;-80
2023/12/07 09:21:23;;;;;;;99.28;37.47;;;;;;;-1.25;100.00;97747.50;5098977;28;20916;-80
2023/12/07 09:23:49;;;;;;;78.93;31.38;;;;;;;-1.20;100.00;97750.41;5097847;28;20394;-81
2023/12/07 09:26:16;;;;;;;69.50;26.67;;;;;;;-1.14;100.00;97752.34;5102732;28;20462;-83
2023/12/07 09:28:42;;;;;;;67.10;27.35;;;;;;;-1.08;100.00;97753.47;5115586;28;20458;-83
2023/12/07 09:31:08;;;;;;;75.20;26.75;;;;;;;-1.02;100.00;97761.38;5106306;28;20497;-80
2023/12/07 09:33:34;;;;;;;67.57;27.13;;;;;;;-0.97;100.00;97753.06;5100775;28;20445;-82
2023/12/07 09:36:07;;;;;;;72.13;25.55;;;;;;;-0.91;100.00;97752.41;5095482;28;20398;-82
2023/12/07 09:38:36;;;;;;;80.65;27.75;;;;;;;-0.86;100.00;97756.13;5097407;28;20789;-81
2023/12/07 09:41:03;;;;;;;62.58;24.05;;;;;;;-0.77;100.00;97753.47;5103672;28;20471;-81
2023/12/07 09:43:29;;;;;;;65.10;23.97;;;;;;;-0.68;100.00;97753.28;5098101;28;20405;-80
2023/12/07 09:45:57;;;;;;;52.35;21.60;;;;;;;-0.52;100.00;97742.75;5094332;28;20840;-82
2023/12/07 09:48:24;;;;;;;42.97;20.70;;;;;;;-0.17;100.00;97736.19;5090024;28;20473;-82
2023/12/07 09:50:52;;;;;;;47.53;16.80;;;;;;;0.57;100.00;97744.13;5089281;28;20767;-79
2023/12/07 09:53:20;;;;;;;18.27;10.55;;;;;;;1.78;100.00;97737.34;5106915;28;20418;-81
2023/12/07 09:55:47;;;;;;;21.63;10.95;;;;;;;3.15;100.00;97735.06;5109800;28;20402;-82
2023/12/07 09:58:13;;;;;;;15.32;9.07;;;;;;;4.23;100.00;97730.41;5102188;28;20416;-81
2023/12/07 10:00:39;;;;;;;19.83;7.78;;;;;;;5.19;100.00;97737.69;5099932;28;20397;-82
2023/12/07 10:03:09;;;;;;;8.95;5.65;;;;;;;5.91;100.00;97726.81;5105406;28;20451;-81
2023/12/07 10:05:52;;;;;;;8.98;6.90;;;;;;;6.50;100.00;97725.53;5106091;28;20394;-81
2023/12/07 10:08:28;;;;;;;8.80;6.28;;;;;;;7.09;100.00;97718.84;5080725;28;20446;-80
2023/12/07 10:11:03;;;;;;;9.43;7.30;;;;;;;7.58;100.00;97707.31;5109409;28;20394;-81
2023/12/07 10:13:30;;;;;;;9.23;6.93;;;;;;;7.94;100.00;97703.72;5110994;28;20446;-80
2023/12/07 10:16:07;;;;;;;10.13;6.70;;;;;;;8.20;100.00;97697.22;5099590;28;20454;-79
2023/12/07 10:18:33;;;;;;;7.13;5.53;;;;;;;8.69;100.00;97688.91;5099356;28;20397;-80
2023/12/07 10:20:59;;;;;;;9.20;5.75;;;;;;;9.01;100.00;97689.31;5099453;28;20396;-80
2023/12/07 10:23:27;;;;;;;5.60;4.70;;;;;;;9.47;100.00;97688.34;5099067;28;20398;-82
2023/12/07 10:25:54;;;;;;;4.65;3.78;;;;;;;9.98;100.00;97697.97;5098420;28;20483;-80
2023/12/07 10:28:21;;;;;;;4.70;3.83;;;;;;;10.40;100.00;97687.81;5098147;28;20791;-80
2023/12/07 10:30:48;;;;;;;5.53;4.53;;;;;;;10.69;100.00;97659.38;5101669;28;20394;-80
2023/12/07 10:33:14;;;;;;;5.18;3.55;;;;;;;11.04;100.00;97635.19;5102120;28;20417;-80
2023/12/07 10:35:40;;;;;;;4.95;3.20;;;;;;;11.47;100.00;97629.03;5105815;28;20484;-81
2023/12/07 10:38:07;;;;;;;3.22;2.67;;;;;;;11.89;100.00;97631.00;5107910;28;20405;-80
2023/12/07 10:40:34;;;;;;;3.50;2.50;;;;;;;12.22;100.00;97636.03;5102290;28;20405;-78
2023/12/07 10:43:04;;;;;;;6.57;4.30;;;;;;;12.28;100.00;97636.88;5101304;28;20398;-80
2023/12/07 10:45:31;;;;;;;7.85;4.88;;;;;;;12.18;100.00;97639.47;5101566;28;20390;-78
2023/12/07 10:48:03;;;;;;;7.30;4.75;;;;;;;11.90;100.00;97633.41;5101200;28;20870;-81
2023/12/07 10:50:34;;;;;;;7.72;4.70;;;;;;;11.76;100.00;97628.78;5101844;28;20485;-80
2023/12/07 10:53:04;;;;;;;5.30;4.30;;;;;;;11.67;100.00;97635.56;5100773;28;20386;-78
2023/12/07 10:55:38;;;;;;;7.07;4.60;;;;;;;11.53;100.00;97625.34;5100810;28;20390;-81
2023/12/07 10:58:07;;;;;;;5.80;4.60;;;;;;;11.41;100.00;97627.38;5100650;28;20402;-80
2023/12/07 11:00:34;;;;;;;7.18;4.32;;;;;;;11.27;100.00;97620.06;5100867;28;20734;-81
2023/12/07 11:03:01;;;;;;;4.78;3.83;;;;;;;11.25;100.00;97625.63;5101197;28;20397;-81
2023/12/07 11:05:30;;;;;;;4.82;3.50;;;;;;;11.32;100.00;97610.31;5100252;28;20415;-79
2023/12/07 11:08:01;;;;;;;7.18;4.72;;;;;;;11.16;100.00;97606.72;5102772;28;20394;-78
2023/12/07 11:10:34;;;;;;;6.27;4.30;;;;;;;11.09;100.00;97608.75;5103209;28;20782;-80
2023/12/07 11:13:14;;;;;;;6.63;4.65;;;;;;;10.65;100.00;97589.44;5100789;28;20472;-79